Time;durP1;ratioP1;P1;durP2;ratioP2;P2;SDS_P1;SDS_P2;PMS_P1;PMS_P2;Temp;Humidity;BMP_temperature;BMP_pressure;BME280_temperature;BME280_humidity;BME280_pressure;Samples;Min_cycle;Max_cycle;Signal;HPM_P1;HPM_P2
2021/12/10 00:00:58;;;;;;;18.27;7.60;;;;;;;-13.67;73.82;101375.44;5056478;28;20122;-82
2021/12/10 00:03:36;;;;;;;14.82;6.18;;;;;;;-13.61;74.04;101365.25;5054736;28;20127;-80
2021/12/10 00:06:10;;;;;;;16.27;7.55;;;;;;;-13.76;74.32;101356.75;5052604;28;20060;-80
2021/12/10 00:08:40;;;;;;;16.98;7.65;;;;;;;-13.68;74.13;101371.16;5054235;28;20052;-81
2021/12/10 00:11:15;;;;;;;17.05;8.57;;;;;;;-13.62;74.75;101381.94;5052314;28;20110;-81
2021/12/10 00:13:44;;;;;;;16.13;6.57;;;;;;;-13.62;74.22;101381.03;5054549;28;20060;-82
2021/12/10 00:16:14;;;;;;;15.35;6.15;;;;;;;-13.68;74.40;101396.28;5054033;28;20061;-82
2021/12/10 00:18:48;;;;;;;15.23;6.63;;;;;;;-13.72;74.04;101378.09;5054089;28;20524;-81
2021/12/10 00:21:15;;;;;;;14.20;6.88;;;;;;;-13.74;74.13;101382.03;5056940;28;20084;-79
2021/12/10 00:23:46;;;;;;;18.70;6.55;;;;;;;-13.73;74.41;101386.38;5054249;28;20143;-81
2021/12/10 00:26:13;;;;;;;12.07;5.07;;;;;;;-13.86;74.05;101363.84;5054467;28;20123;-84
2021/12/10 00:28:41;;;;;;;14.93;6.28;;;;;;;-13.88;74.34;101370.31;5053287;28;20497;-81
2021/12/10 00:34:06;;;;;;;17.73;6.38;;;;;;;-13.82;74.30;101378.59;5054543;28;20061;-81
2021/12/10 00:36:36;;;;;;;15.52;6.43;;;;;;;-13.99;74.38;101350.50;5043040;28;20433;-84
2021/12/10 00:39:11;;;;;;;14.77;7.18;;;;;;;-13.76;74.58;101378.44;5053754;28;20049;-85
2021/12/10 00:41:39;;;;;;;14.88;5.80;;;;;;;-13.70;74.35;101380.13;5055975;28;20053;-84
2021/12/10 00:44:07;;;;;;;15.38;6.78;;;;;;;-13.72;73.86;101375.59;5055890;28;20041;-86
2021/12/10 00:46:34;;;;;;;14.60;6.75;;;;;;;-13.67;74.07;101380.47;5056792;28;20139;-83
2021/12/10 00:49:01;;;;;;;18.27;8.15;;;;;;;-13.63;74.19;101370.09;5054637;28;20521;-85
2021/12/10 00:51:28;;;;;;;18.25;7.50;;;;;;;-13.71;73.90;101360.72;5054041;28;20143;-86
2021/12/10 00:53:56;;;;;;;16.33;7.13;;;;;;;-13.78;73.90;101362.31;5067631;28;20055;-81
2021/12/10 00:56:23;;;;;;;16.55;6.95;;;;;;;-13.79;74.36;101386.50;5066957;28;20073;-80
2021/12/10 00:58:51;;;;;;;18.70;7.28;;;;;;;-13.83;73.76;101385.25;5064501;28;20049;-78
2021/12/10 01:01:24;;;;;;;13.50;6.35;;;;;;;-13.81;73.78;101387.94;5054183;28;20487;-81
2021/12/10 01:04:04;;;;;;;16.23;7.05;;;;;;;-13.94;73.71;101382.09;5052741;28;20398;-80
2021/12/10 01:06:32;;;;;;;17.92;7.57;;;;;;;-14.13;74.25;101356.31;5053509;28;20049;-80
2021/12/10 01:09:05;;;;;;;14.20;6.25;;;;;;;-14.11;73.71;101387.53;5053615;28;20107;-81
2021/12/10 01:11:39;;;;;;;14.05;6.25;;;;;;;-14.09;74.65;101394.56;5053955;28;20064;-79
2021/12/10 01:14:21;;;;;;;14.93;6.88;;;;;;;-13.99;74.17;101394.09;5054744;28;20057;-80
2021/12/10 01:25:25;;;;;;;13.80;5.75;;;;;;;-13.97;73.33;101411.88;5064735;28;20120;-79
2021/12/10 01:27:52;;;;;;;13.30;5.78;;;;;;;-14.07;73.85;101415.75;5065715;28;20059;-79
2021/12/10 01:30:24;;;;;;;16.67;6.72;;;;;;;-14.17;73.71;101426.97;5053210;28;20052;-81
2021/12/10 01:33:09;;;;;;;15.50;6.70;;;;;;;-14.25;74.21;101406.81;5053347;28;20055;-80
2021/12/10 01:35:41;;;;;;;17.80;7.00;;;;;;;-14.32;74.13;101385.78;5054317;28;20508;-80
2021/12/10 01:38:10;;;;;;;14.60;6.03;;;;;;;-14.26;73.91;101402.53;5053712;28;20103;-82
2021/12/10 01:40:40;;;;;;;13.13;5.85;;;;;;;-14.27;74.26;101412.38;5054130;28;20100;-81
2021/12/10 01:43:11;;;;;;;18.23;7.03;;;;;;;-14.34;73.92;101410.69;5053744;28;20049;-82
2021/12/10 01:45:48;;;;;;;20.83;7.55;;;;;;;-14.37;73.38;101422.84;5053583;28;20057;-82
2021/12/10 01:48:19;;;;;;;14.93;6.90;;;;;;;-14.43;73.99;101423.00;5064374;28;20029;-82
2021/12/10 01:50:47;;;;;;;17.15;7.00;;;;;;;-14.45;73.82;101415.97;5077520;28;20036;-83
2021/12/10 01:53:18;;;;;;;17.85;7.03;;;;;;;-14.49;73.87;101409.66;5076858;28;20044;-83
2021/12/10 01:55:50;;;;;;;18.08;7.95;;;;;;;-14.44;73.86;101410.25;5077813;28;20037;-82
2021/12/10 01:58:22;;;;;;;17.83;6.95;;;;;;;-14.39;73.36;101406.69;5077428;28;20045;-81
2021/12/10 02:01:05;;;;;;;18.25;7.30;;;;;;;-14.36;73.80;101418.75;5078234;28;20052;-80
2021/12/10 02:03:33;;;;;;;20.20;7.32;;;;;;;-14.50;73.04;101424.53;5063287;28;20055;-80
2021/12/10 02:06:00;;;;;;;19.65;7.85;;;;;;;-14.60;73.21;101429.09;5060954;28;20147;-81
2021/12/10 02:08:27;;;;;;;19.00;7.07;;;;;;;-14.70;73.33;101419.53;5062059;28;20559;-81
2021/12/10 02:10:54;;;;;;;16.55;7.03;;;;;;;-14.76;73.60;101421.25;5064818;28;20107;-84
2021/12/10 02:13:22;;;;;;;17.27;7.40;;;;;;;-14.77;74.00;101429.50;5057370;28;20061;-80
2021/12/10 02:15:49;;;;;;;18.58;7.40;;;;;;;-14.78;73.40;101427.69;5055401;28;20528;-83
2021/12/10 02:18:16;;;;;;;21.98;7.93;;;;;;;-14.73;73.75;101427.56;5053765;28;20049;-80
2021/12/10 02:20:50;;;;;;;20.23;7.90;;;;;;;-14.67;73.47;101425.84;5051418;28;20152;-79
2021/12/10 02:23:18;;;;;;;19.73;7.53;;;;;;;-14.71;72.90;101421.16;5054960;28;20087;-80
2021/12/10 02:25:48;;;;;;;23.93;9.17;;;;;;;-14.63;73.39;101436.25;5055542;28;20055;-82
2021/12/10 02:28:15;;;;;;;17.10;7.05;;;;;;;-14.60;73.58;101435.06;5054468;28;20378;-80
2021/12/10 02:30:43;;;;;;;18.17;7.13;;;;;;;-14.55;72.67;101441.53;5056317;28;20056;-84
2021/12/10 02:33:10;;;;;;;21.23;8.77;;;;;;;-14.58;72.89;101440.25;5055146;28;20049;-82
2021/12/10 02:35:38;;;;;;;17.50;7.30;;;;;;;-14.67;73.12;101429.94;5055991;28;20057;-80
2021/12/10 02:38:07;;;;;;;22.17;8.07;;;;;;;-14.77;72.73;101430.41;5056094;28;20057;-81
2021/12/10 02:40:35;;;;;;;22.00;7.78;;;;;;;-14.84;73.44;101430.28;5055810;28;20156;-79
2021/12/10 02:43:07;;;;;;;18.30;7.55;;;;;;;-14.93;73.02;101439.16;5055600;28;20048;-81
2021/12/10 02:45:35;;;;;;;22.58;7.65;;;;;;;-14.96;72.99;101429.66;5056489;28;20061;-80
2021/12/10 02:48:02;;;;;;;22.73;8.25;;;;;;;-15.04;72.62;101435.28;5059769;28;20412;-80
2021/12/10 02:50:32;;;;;;;22.15;8.13;;;;;;;-15.15;72.96;101428.00;5055964;28;20394;-80
2021/12/10 02:53:00;;;;;;;19.75;7.38;;;;;;;-15.18;73.09;101426.00;5055348;28;20065;-80
2021/12/10 02:55:29;;;;;;;22.42;7.80;;;;;;;-15.25;73.00;101418.34;5055544;28;20045;-81
2021/12/10 02:58:00;;;;;;;17.83;7.32;;;;;;;-15.36;73.25;101411.06;5055609;28;20061;-81
2021/12/10 03:00:31;;;;;;;21.83;8.20;;;;;;;-15.47;73.09;101399.66;5055225;28;20114;-79
2021/12/10 03:02:58;;;;;;;20.50;7.63;;;;;;;-15.41;73.41;101423.00;5055844;28;20055;-80
2021/12/10 03:05:25;;;;;;;28.00;9.85;;;;;;;-15.48;73.27;101411.28;5054844;28;20506;-81
2021/12/10 03:07:53;;;;;;;21.92;7.32;;;;;;;-15.61;72.87;101411.97;5055376;28;20059;-81
2021/12/10 03:10:24;;;;;;;16.65;6.97;;;;;;;-15.41;73.04;101424.63;5055218;28;20075;-80
2021/12/10 03:12:52;;;;;;;21.45;7.20;;;;;;;-15.49;72.54;101419.50;5053786;28;20052;-81
2021/12/10 03:15:21;;;;;;;19.45;8.05;;;;;;;-15.59;72.98;101408.06;5054904;28;20107;-83
2021/12/10 03:17:48;;;;;;;18.10;7.15;;;;;;;-15.52;73.56;101445.78;5055156;28;20049;-84
2021/12/10 03:20:19;;;;;;;20.67;7.90;;;;;;;-15.68;73.24;101423.72;5053218;28;20424;-83
2021/12/10 03:22:47;;;;;;;23.02;8.23;;;;;;;-15.63;73.13;101444.38;5054072;28;20045;-83
2021/12/10 03:25:16;;;;;;;22.95;8.20;;;;;;;-15.61;72.42;101452.06;5053860;28;20057;-80
2021/12/10 03:27:44;;;;;;;22.33;8.95;;;;;;;-15.65;72.74;101437.38;5058027;28;20061;-82
2021/12/10 03:30:17;;;;;;;24.45;8.98;;;;;;;-15.65;72.97;101450.78;5057070;28;20053;-82
2021/12/10 03:32:45;;;;;;;21.48;8.02;;;;;;;-15.72;72.28;101448.19;5056361;28;20057;-81
2021/12/10 03:35:22;;;;;;;23.60;8.52;;;;;;;-15.91;73.19;101424.84;5065582;28;20132;-81
2021/12/10 03:37:49;;;;;;;22.75;8.07;;;;;;;-15.76;73.24;101464.44;5068986;28;20053;-82
2021/12/10 03:40:18;;;;;;;23.33;8.65;;;;;;;-15.74;73.00;101467.16;5063203;28;20136;-82
2021/12/10 03:42:47;;;;;;;21.85;7.93;;;;;;;-15.75;73.25;101471.22;5064316;28;20146;-83
2021/12/10 03:45:16;;;;;;;21.17;8.85;;;;;;;-15.78;73.38;101473.34;5056696;28;20049;-82
2021/12/10 03:47:45;;;;;;;24.47;8.87;;;;;;;-15.83;73.31;101465.91;5053410;28;20057;-83
2021/12/10 03:50:24;;;;;;;20.63;8.50;;;;;;;-15.85;72.65;101473.22;5058217;28;20775;-84
2021/12/10 03:52:51;;;;;;;26.08;9.15;;;;;;;-15.83;73.40;101476.81;5057965;28;20053;-82
2021/12/10 03:55:18;;;;;;;25.90;8.93;;;;;;;-15.68;72.96;101471.34;5052978;28;20044;-82
2021/12/10 03:57:46;;;;;;;25.33;9.68;;;;;;;-15.77;72.79;101467.63;5044683;28;20057;-82
2021/12/10 04:00:15;;;;;;;24.45;8.63;;;;;;;-15.87;72.66;101462.13;5034340;28;20053;-81
2021/12/10 04:02:42;;;;;;;24.90;8.35;;;;;;;-15.95;72.77;101467.72;5048645;28;20497;-83
2021/12/10 04:05:09;;;;;;;21.75;8.93;;;;;;;-15.84;73.10;101487.56;5054467;28;20064;-82
2021/12/10 04:07:36;;;;;;;21.58;9.13;;;;;;;-15.94;72.82;101482.91;5045189;28;20092;-82
2021/12/10 04:10:07;;;;;;;25.48;8.98;;;;;;;-15.95;72.33;101477.72;5035206;28;20060;-82
2021/12/10 04:12:34;;;;;;;25.40;9.55;;;;;;;-15.96;72.09;101496.84;5034465;28;20148;-83
2021/12/10 04:15:05;;;;;;;20.85;7.47;;;;;;;-16.04;73.16;101489.00;5033445;28;20168;-83
2021/12/10 04:17:33;;;;;;;23.77;9.27;;;;;;;-16.05;72.78;101493.13;5034381;28;20053;-83
2021/12/10 04:20:00;;;;;;;22.08;8.18;;;;;;;-16.11;72.80;101487.28;5033991;28;20054;-83
2021/12/10 04:22:32;;;;;;;22.30;9.32;;;;;;;-16.10;73.15;101496.63;5033963;28;20057;-82
2021/12/10 04:25:03;;;;;;;20.42;7.95;;;;;;;-16.14;72.71;101505.31;5033308;28;20053;-81
2021/12/10 04:27:30;;;;;;;20.25;7.90;;;;;;;-16.23;72.37;101480.66;5033381;28;20472;-82
2021/12/10 04:29:58;;;;;;;20.80;8.25;;;;;;;-16.35;72.81;101468.28;5034194;28;20460;-83
2021/12/10 04:32:27;;;;;;;21.35;8.02;;;;;;;-16.28;72.78;101487.53;5034419;28;20045;-81
2021/12/10 04:34:54;;;;;;;21.02;7.50;;;;;;;-16.38;72.44;101475.41;5033487;28;20609;-82
2021/12/10 04:37:22;;;;;;;22.92;7.75;;;;;;;-16.49;72.37;101460.56;5034254;28;20061;-81
2021/12/10 04:39:49;;;;;;;23.83;9.10;;;;;;;-16.51;72.48;101477.84;5039928;28;20057;-81
2021/12/10 04:42:21;;;;;;;21.58;8.23;;;;;;;-16.44;72.37;101484.56;5035005;28;20067;-81
2021/12/10 04:44:53;;;;;;;27.77;8.82;;;;;;;-16.34;72.74;101516.75;5080784;28;20195;-81
2021/12/10 04:47:20;;;;;;;25.23;8.85;;;;;;;-16.41;72.35;101491.59;5040004;28;20579;-80
2021/12/10 04:49:48;;;;;;;22.35;8.73;;;;;;;-16.35;72.16;101508.31;5051066;28;20048;-81
2021/12/10 04:52:15;;;;;;;25.23;8.88;;;;;;;-16.39;72.22;101500.19;5054548;28;20064;-84
2021/12/10 04:54:42;;;;;;;24.58;8.85;;;;;;;-16.53;72.99;101475.84;5053276;28;20048;-82
2021/12/10 04:57:10;;;;;;;28.25;10.88;;;;;;;-16.41;72.27;101501.59;5054200;28;20061;-81
2021/12/10 04:59:39;;;;;;;22.38;9.40;;;;;;;-16.42;72.75;101495.69;5054086;28;20057;-82
2021/12/10 05:02:09;;;;;;;23.07;8.43;;;;;;;-16.53;72.84;101494.25;5054118;28;20049;-80
2021/12/10 05:04:37;;;;;;;21.88;8.50;;;;;;;-16.48;72.62;101503.97;5052721;28;20303;-82
2021/12/10 05:07:05;;;;;;;29.70;10.43;;;;;;;-16.54;72.59;101514.03;5054291;28;20056;-82
2021/12/10 05:09:33;;;;;;;27.70;10.07;;;;;;;-16.55;73.15;101497.25;5059683;28;20063;-81
2021/12/10 05:12:01;;;;;;;20.33;8.40;;;;;;;-16.60;73.15;101501.63;5056843;28;20057;-82
2021/12/10 05:14:30;;;;;;;23.23;9.77;;;;;;;-16.52;72.23;101527.66;5057177;28;20056;-83
2021/12/10 05:17:03;;;;;;;23.35;10.05;;;;;;;-16.55;72.15;101522.25;5044741;28;20508;-83
2021/12/10 05:19:31;;;;;;;27.20;10.25;;;;;;;-16.54;72.11;101531.56;5053687;28;20056;-83
2021/12/10 05:22:00;;;;;;;20.10;8.20;;;;;;;-16.66;72.93;101508.28;5053744;28;20463;-81
2021/12/10 05:24:28;;;;;;;21.20;8.10;;;;;;;-16.62;72.41;101518.03;5052652;28;20049;-81
2021/12/10 05:26:56;;;;;;;25.60;8.75;;;;;;;-16.66;72.47;101520.81;5052894;28;20061;-82
2021/12/10 05:29:23;;;;;;;17.98;7.90;;;;;;;-16.68;73.36;101518.78;5051848;28;20056;-83
2021/12/10 05:31:52;;;;;;;18.45;8.18;;;;;;;-16.69;73.41;101521.97;5053463;28;20053;-82
2021/12/10 05:34:19;;;;;;;16.88;6.55;;;;;;;-16.66;72.60;101529.91;5053497;28;20095;-81
2021/12/10 05:36:46;;;;;;;25.95;10.30;;;;;;;-16.66;72.47;101545.81;5057676;28;20052;-81
2021/12/10 05:39:14;;;;;;;21.77;7.88;;;;;;;-16.75;72.54;101507.94;5055642;28;20084;-82
2021/12/10 05:41:42;;;;;;;21.20;8.18;;;;;;;-16.67;72.73;101526.47;5050858;28;20060;-82
2021/12/10 05:44:09;;;;;;;20.00;8.10;;;;;;;-16.71;72.42;101515.19;5066732;28;20087;-78
2021/12/10 05:46:38;;;;;;;22.23;9.13;;;;;;;-16.81;73.09;101511.25;5068965;28;20451;-79
2021/12/10 05:49:06;;;;;;;22.23;8.57;;;;;;;-16.73;72.88;101520.66;5070043;28;20155;-81
2021/12/10 05:51:34;;;;;;;23.60;8.20;;;;;;;-16.68;73.34;101529.69;5060970;28;20053;-80
2021/12/10 05:54:03;;;;;;;19.63;7.68;;;;;;;-16.73;73.14;101524.06;5056836;28;20052;-83
2021/12/10 05:56:30;;;;;;;25.77;8.88;;;;;;;-16.74;73.12;101512.25;5056576;28;20084;-84
2021/12/10 05:58:57;;;;;;;21.95;8.57;;;;;;;-16.61;72.65;101532.31;5056663;28;20063;-83
2021/12/10 06:01:25;;;;;;;26.52;9.70;;;;;;;-16.61;72.91;101536.44;5055895;28;20147;-83
2021/12/10 06:03:53;;;;;;;26.90;9.90;;;;;;;-16.52;72.29;101547.69;5056731;28;20053;-82
2021/12/10 06:06:24;;;;;;;23.05;8.90;;;;;;;-16.44;72.67;101541.22;5056888;28;20056;-83
2021/12/10 06:08:52;;;;;;;23.77;9.00;;;;;;;-16.34;72.23;101536.78;5060746;28;20048;-82
2021/12/10 06:11:20;;;;;;;22.13;8.85;;;;;;;-16.30;72.94;101536.50;5057410;28;20107;-84
2021/12/10 06:13:47;;;;;;;27.60;11.10;;;;;;;-16.22;72.42;101532.50;5044442;28;20071;-85
2021/12/10 06:16:15;;;;;;;24.63;9.30;;;;;;;-16.16;72.92;101540.84;5056457;28;20088;-80
2021/12/10 06:18:43;;;;;;;25.58;9.20;;;;;;;-16.03;72.75;101560.94;5056067;28;20060;-82
2021/12/10 06:21:10;;;;;;;22.15;9.57;;;;;;;-15.97;72.73;101566.75;5056303;28;20051;-81
2021/12/10 06:23:38;;;;;;;25.27;10.00;;;;;;;-16.25;72.40;101482.06;5056228;28;20048;-81
2021/12/10 06:26:05;;;;;;;19.50;7.25;;;;;;;-15.98;72.82;101540.81;5057113;28;20057;-87
2021/12/10 06:28:38;;;;;;;23.90;8.93;;;;;;;-15.90;73.04;101532.72;5032318;28;20055;-82
2021/12/10 06:31:06;;;;;;;22.63;9.13;;;;;;;-15.84;72.49;101545.16;5056336;28;20060;-83
2021/12/10 06:33:33;;;;;;;23.15;8.65;;;;;;;-15.72;72.27;101553.38;5058491;28;20049;-84
2021/12/10 06:36:04;;;;;;;24.25;8.82;;;;;;;-15.69;72.32;101564.69;5054848;28;20500;-84
2021/12/10 06:38:32;;;;;;;23.80;9.80;;;;;;;-15.43;72.70;101558.84;5055691;28;20072;-83
2021/12/10 06:40:59;;;;;;;20.15;9.05;;;;;;;-15.14;72.33;101571.09;5056440;28;20052;-83
2021/12/10 06:43:27;;;;;;;26.67;9.88;;;;;;;-14.87;71.99;101572.91;5055783;28;20099;-82
2021/12/10 06:45:54;;;;;;;26.02;8.80;;;;;;;-14.68;71.54;101566.16;5055310;28;20140;-82
2021/12/10 06:48:24;;;;;;;19.23;7.35;;;;;;;-14.68;71.47;101577.09;5058226;28;20053;-81
2021/12/10 06:50:55;;;;;;;17.77;7.68;;;;;;;-15.09;71.30;101526.56;5055598;28;20060;-83
2021/12/10 06:53:24;;;;;;;18.17;7.20;;;;;;;-14.72;71.34;101582.41;5055019;28;20579;-83
2021/12/10 06:55:52;;;;;;;21.13;9.20;;;;;;;-14.76;71.91;101559.25;5054715;28;20057;-84
2021/12/10 06:58:20;;;;;;;18.98;8.18;;;;;;;-14.50;71.45;101577.63;5054257;28;20057;-82
2021/12/10 07:00:56;;;;;;;31.13;11.80;;;;;;;-14.30;71.33;101578.59;5055215;28;20152;-81
2021/12/10 07:03:26;;;;;;;22.50;7.50;;;;;;;-14.30;71.24;101578.59;5072575;28;20041;-82
2021/12/10 07:05:55;;;;;;;23.02;9.07;;;;;;;-14.45;70.63;101580.03;5058144;28;20049;-81
2021/12/10 07:08:24;;;;;;;21.88;9.48;;;;;;;-14.61;71.25;101557.81;5075261;28;20067;-80
2021/12/10 07:10:51;;;;;;;25.25;10.52;;;;;;;-14.29;72.07;101572.84;5068523;28;20120;-83
2021/12/10 07:13:19;;;;;;;23.85;10.57;;;;;;;-14.09;71.05;101579.50;5059759;28;20049;-83
2021/12/10 07:15:48;;;;;;;25.35;9.25;;;;;;;-14.26;70.93;101563.22;5050872;28;20183;-83
2021/12/10 07:18:18;;;;;;;25.67;9.13;;;;;;;-14.21;71.00;101588.03;5051783;28;20056;-83
2021/12/10 07:20:47;;;;;;;20.15;8.98;;;;;;;-14.08;71.11;101589.78;5055920;28;20320;-81
2021/12/10 07:23:14;;;;;;;22.38;7.70;;;;;;;-14.02;70.94;101587.16;5054154;28;20071;-80
2021/12/10 07:25:42;;;;;;;22.23;8.55;;;;;;;-13.98;70.43;101570.84;5055780;28;20036;-83
2021/12/10 07:28:09;;;;;;;20.45;7.70;;;;;;;-14.12;70.40;101559.94;5055337;28;20048;-79
2021/12/10 07:30:36;;;;;;;20.40;8.50;;;;;;;-13.91;71.21;101596.06;5055481;28;20057;-82
2021/12/10 07:33:07;;;;;;;;;;;;;;;-13.80;71.35;101584.84;5055685;28;20057;-80
2021/12/10 07:35:36;;;;;;;22.58;7.90;;;;;;;-13.68;70.60;101586.38;5053136;28;20356;-80
2021/12/10 07:38:05;;;;;;;27.48;10.48;;;;;;;-13.53;70.32;101587.41;5053153;28;20414;-81
2021/12/10 07:40:34;;;;;;;32.78;12.23;;;;;;;-13.46;69.73;101583.34;5055094;28;20047;-80
2021/12/10 07:43:01;;;;;;;38.10;14.25;;;;;;;-13.41;69.69;101588.94;5054807;28;20060;-79
2021/12/10 07:45:28;;;;;;;33.63;13.98;;;;;;;-13.49;69.43;101584.56;5060521;28;20059;-81
2021/12/10 07:47:59;;;;;;;28.38;11.65;;;;;;;-13.54;69.38;101588.13;5053152;28;20540;-81
2021/12/10 07:50:32;;;;;;;26.20;10.98;;;;;;;-13.59;69.25;101586.63;5035389;28;20103;-79
2021/12/10 07:52:59;;;;;;;27.15;10.13;;;;;;;-13.45;69.23;101585.13;5034841;28;20053;-81
2021/12/10 07:55:30;;;;;;;32.58;10.77;;;;;;;-13.33;69.02;101582.34;5034200;28;20062;-82
2021/12/10 07:58:00;;;;;;;20.13;7.82;;;;;;;-13.21;68.79;101589.75;5048587;28;20148;-79
2021/12/10 08:00:31;;;;;;;22.90;8.00;;;;;;;-13.31;68.73;101588.47;5032735;28;20151;-80
2021/12/10 08:02:59;;;;;;;23.25;8.20;;;;;;;-13.41;69.15;101587.31;5034397;28;20152;-80
2021/12/10 08:05:26;;;;;;;20.48;7.63;;;;;;;-13.40;68.94;101593.25;5033975;28;20164;-80
2021/12/10 08:07:59;;;;;;;15.88;7.22;;;;;;;-13.55;69.11;101568.69;5034147;28;20053;-80
2021/12/10 08:10:27;;;;;;;19.30;8.05;;;;;;;-13.52;69.94;101585.09;5032848;28;20053;-80
2021/12/10 08:12:55;;;;;;;25.38;9.02;;;;;;;-13.35;69.94;101596.38;5034202;28;20136;-80
2021/12/10 08:15:25;;;;;;;23.88;8.18;;;;;;;-13.14;69.58;101586.41;5034053;28;20049;-81
2021/12/10 08:17:52;;;;;;;20.73;7.53;;;;;;;-13.07;68.97;101583.94;5033883;28;20140;-82
2021/12/10 08:20:23;;;;;;;19.65;8.07;;;;;;;-13.05;69.25;101581.63;5034226;28;20053;-80
2021/12/10 08:22:51;;;;;;;21.90;8.82;;;;;;;-12.95;69.06;101582.03;5033756;28;20053;-80
2021/12/10 08:25:21;;;;;;;19.55;7.93;;;;;;;-12.68;68.78;101588.66;5032029;28;20052;-81
2021/12/10 08:27:52;;;;;;;21.42;7.07;;;;;;;-12.84;68.81;101579.22;5034933;28;20513;-83
2021/12/10 08:30:22;;;;;;;19.08;6.90;;;;;;;-12.98;68.75;101580.03;5051551;28;20057;-84
2021/12/10 08:32:52;;;;;;;16.83;7.05;;;;;;;-13.07;69.09;101580.53;5054508;28;20088;-82
2021/12/10 08:35:23;;;;;;;;;;;;;;;-13.13;69.55;101580.66;5036195;28;20057;-81
2021/12/10 08:37:52;;;;;;;17.92;6.90;;;;;;;-13.13;69.22;101593.25;5032736;28;20036;-80
2021/12/10 08:40:27;;;;;;;17.70;6.65;;;;;;;-13.13;69.04;101584.81;5033873;28;20076;-81
2021/12/10 08:42:54;;;;;;;17.23;6.18;;;;;;;-13.14;69.83;101586.41;5034104;28;20064;-82
2021/12/10 08:45:23;;;;;;;18.02;6.93;;;;;;;-13.15;69.70;101598.78;5033898;28;20072;-83
2021/12/10 08:47:52;;;;;;;15.95;6.38;;;;;;;-13.26;69.48;101577.34;5033253;28;20053;-82
2021/12/10 08:50:23;;;;;;;19.33;8.20;;;;;;;-13.21;69.30;101588.88;5034187;28;20528;-80
2021/12/10 08:52:54;;;;;;;16.92;7.50;;;;;;;-13.33;69.15;101574.78;5035330;28;20053;-80
2021/12/10 08:55:21;;;;;;;19.10;7.97;;;;;;;-13.30;69.28;101590.28;5035726;28;20037;-81
2021/12/10 08:57:48;;;;;;;16.08;6.53;;;;;;;-13.27;69.83;101584.00;5056447;28;20034;-81
2021/12/10 09:00:17;;;;;;;19.55;7.43;;;;;;;-13.21;69.76;101582.22;5057754;28;20868;-81
2021/12/10 09:02:45;;;;;;;18.70;6.88;;;;;;;-13.14;69.49;101570.41;5073271;28;20025;-82
2021/12/10 09:05:11;;;;;;;15.23;7.05;;;;;;;-13.02;69.17;101587.91;5077188;28;20033;-80
2021/12/10 09:07:42;;;;;;;16.48;6.80;;;;;;;-12.98;69.42;101584.16;5064889;28;20052;-81
2021/12/10 09:10:10;;;;;;;15.82;6.63;;;;;;;-12.94;69.15;101587.97;5057771;28;20083;-80
2021/12/10 09:12:38;;;;;;;19.65;7.57;;;;;;;-12.94;69.42;101586.34;5059554;28;20076;-82
2021/12/10 09:15:10;;;;;;;13.38;5.90;;;;;;;-12.85;69.52;101587.47;5049874;28;20067;-82
2021/12/10 09:17:40;;;;;;;19.02;7.00;;;;;;;-12.87;69.35;101575.44;5060690;28;20060;-82
2021/12/10 09:20:14;;;;;;;16.42;6.93;;;;;;;-12.64;69.22;101588.31;5053950;28;20061;-81
2021/12/10 09:22:42;;;;;;;19.25;7.28;;;;;;;-12.60;68.93;101593.91;5052562;28;20048;-84
2021/12/10 09:25:10;;;;;;;17.48;7.70;;;;;;;-12.54;69.34;101590.31;5037355;28;20107;-82
2021/12/10 09:27:37;;;;;;;20.90;8.95;;;;;;;-12.48;69.47;101601.16;5057292;28;20103;-81
2021/12/10 09:30:08;;;;;;;17.92;7.18;;;;;;;-12.44;69.10;101584.06;5072723;28;20092;-81
2021/12/10 09:32:36;;;;;;;12.82;5.93;;;;;;;-12.62;69.16;101554.16;5072130;28;20041;-85
2021/12/10 09:35:07;;;;;;;15.20;6.30;;;;;;;-12.43;69.21;101560.72;5065930;28;20055;-81
2021/12/10 09:37:40;;;;;;;10.70;5.45;;;;;;;-12.24;69.28;101591.50;5070272;28;20100;-79
2021/12/10 09:40:20;;;;;;;15.63;5.80;;;;;;;-12.29;69.34;101569.91;5075945;28;20055;-80
2021/12/10 09:42:47;;;;;;;17.20;6.13;;;;;;;-12.14;68.98;101580.94;5076645;28;20063;-80
2021/12/10 09:45:17;;;;;;;16.58;6.53;;;;;;;-12.07;69.26;101562.41;5066085;28;20076;-84
2021/12/10 09:47:45;;;;;;;15.75;7.20;;;;;;;-12.08;68.78;101575.75;5060629;28;20084;-82
2021/12/10 09:50:14;;;;;;;14.15;6.57;;;;;;;-11.99;69.38;101566.75;5057075;28;20053;-81
2021/12/10 09:52:42;;;;;;;14.95;6.00;;;;;;;-12.23;69.20;101526.94;5058992;28;20076;-81
2021/12/10 09:55:12;;;;;;;17.58;6.70;;;;;;;-11.87;69.36;101563.16;5056613;28;20071;-83
2021/12/10 09:57:41;;;;;;;14.18;5.25;;;;;;;-11.79;69.29;101575.00;5053379;28;20115;-83
2021/12/10 10:00:20;;;;;;;11.65;5.68;;;;;;;-11.82;69.20;101579.72;5050365;28;20695;-84
2021/12/10 10:02:48;;;;;;;14.13;5.97;;;;;;;-11.91;69.42;101555.03;5048831;28;20060;-80
2021/12/10 10:05:15;;;;;;;15.80;7.35;;;;;;;-11.84;69.20;101567.66;5050542;28;20493;-80
2021/12/10 10:07:42;;;;;;;17.08;6.90;;;;;;;-11.74;69.57;101578.13;5051465;28;20393;-81
2021/12/10 10:10:14;;;;;;;15.10;5.78;;;;;;;-11.72;69.33;101589.28;5048840;28;20576;-82
2021/12/10 10:12:46;;;;;;;15.10;5.45;;;;;;;-11.67;68.83;101564.59;5049145;28;20049;-81
2021/12/10 10:15:18;;;;;;;12.38;5.40;;;;;;;-11.67;69.13;101585.66;5052279;28;20036;-79
2021/12/10 10:17:53;;;;;;;10.77;4.55;;;;;;;-11.75;68.96;101573.78;5052281;28;20512;-82
2021/12/10 10:20:21;;;;;;;11.20;5.15;;;;;;;-11.84;69.06;101568.53;5052912;28;20067;-81
2021/12/10 10:22:52;;;;;;;12.27;6.03;;;;;;;-11.85;69.53;101571.81;5055163;28;20072;-81
2021/12/10 10:25:28;;;;;;;15.18;6.55;;;;;;;-11.71;69.34;101562.44;5057028;28;20053;-82
2021/12/10 10:27:57;;;;;;;14.90;7.00;;;;;;;-11.79;68.80;101538.81;5053791;28;20075;-82
2021/12/10 10:30:32;;;;;;;17.45;7.05;;;;;;;-11.51;68.73;101573.25;5056910;28;20057;-82
2021/12/10 10:33:04;;;;;;;8.65;4.35;;;;;;;-11.44;68.88;101578.31;5078870;28;20168;-82
2021/12/10 10:35:37;;;;;;;14.48;6.70;;;;;;;-11.44;68.67;101578.31;5055327;28;20126;-80
2021/12/10 10:38:06;;;;;;;14.40;6.32;;;;;;;-11.47;68.82;101550.19;5057673;28;20048;-82
2021/12/10 10:40:38;;;;;;;12.32;6.05;;;;;;;-11.31;68.98;101578.13;5062274;28;20063;-82
2021/12/10 10:43:06;;;;;;;16.52;6.38;;;;;;;-11.38;68.50;101581.56;5058340;28;20107;-82
2021/12/10 10:45:36;;;;;;;12.45;5.70;;;;;;;-11.46;68.84;101559.56;5057584;28;20076;-84
2021/12/10 10:48:04;;;;;;;;;;;;;;;-11.29;68.77;101590.88;5060744;28;20110;-80
2021/12/10 10:50:41;;;;;;;16.63;6.20;;;;;;;-11.24;68.69;101587.31;5059798;28;19995;-82
2021/12/10 10:53:13;;;;;;;10.98;5.25;;;;;;;-11.20;68.64;101577.75;5060321;28;20062;-81
2021/12/10 10:55:58;;;;;;;13.38;5.63;;;;;;;-11.19;68.54;101593.78;5055052;28;20053;-81
2021/12/10 10:58:30;;;;;;;12.50;5.20;;;;;;;-11.24;68.59;101590.72;5038274;28;20064;-82
2021/12/10 11:01:08;;;;;;;15.05;6.40;;;;;;;-11.24;69.00;101587.31;5057768;28;20420;-81
2021/12/10 11:04:02;;;;;;;16.05;6.28;;;;;;;-11.22;68.59;101584.22;5058133;28;20045;-82
2021/12/10 11:06:39;;;;;;;14.13;5.30;;;;;;;-11.23;68.46;101584.94;5059441;28;20059;-82
2021/12/10 11:09:28;;;;;;;12.45;5.53;;;;;;;-11.30;69.08;101582.44;5062285;28;20049;-80
2021/12/10 11:12:05;;;;;;;9.18;3.97;;;;;;;-11.41;68.49;101576.13;5054017;28;20069;-84
2021/12/10 11:14:40;;;;;;;15.52;5.47;;;;;;;-11.36;68.39;101594.31;5055278;28;20053;-84
2021/12/10 11:17:14;;;;;;;13.48;5.95;;;;;;;-11.42;68.49;101589.47;5054936;28;20144;-83
2021/12/10 11:20:04;;;;;;;12.25;5.47;;;;;;;-11.47;68.40;101590.53;5055152;28;20079;-83
2021/12/10 11:22:32;;;;;;;11.50;4.82;;;;;;;-11.45;68.78;101595.78;5055408;28;20534;-82
2021/12/10 11:25:06;;;;;;;7.88;4.25;;;;;;;-11.49;68.78;101584.41;5054441;28;20107;-82
2021/12/10 11:27:36;;;;;;;7.13;3.65;;;;;;;-11.52;68.54;101591.63;5054155;28;20398;-82
2021/12/10 11:30:19;;;;;;;16.83;6.13;;;;;;;-11.48;68.94;101590.38;5054648;28;20420;-82
2021/12/10 11:33:01;;;;;;;7.80;3.90;;;;;;;-11.57;68.83;101570.00;5054015;28;20053;-83